Time;durP1;ratioP1;P1;durP2;ratioP2;P2;SDS_P1;SDS_P2;PMS_P1;PMS_P2;Temp;Humidity;BMP_temperature;BMP_pressure;BME280_temperature;BME280_humidity;BME280_pressure;Samples;Min_cycle;Max_cycle;Signal;HPM_P1;HPM_P2
2022/06/19 00:02:08;;;;;;;13.40;5.75;;;24.40;95.70;;;22.87;88.40;99762.03;5031693;28;20117;-90
2022/06/19 00:04:37;;;;;;;14.85;5.50;;;24.50;95.90;;;22.82;88.09;99757.31;5031910;28;20042;-90
2022/06/19 00:07:05;;;;;;;11.13;5.70;;;24.40;95.80;;;22.77;88.42;99762.91;5031119;28;20112;-90
2022/06/19 00:09:32;;;;;;;11.25;5.65;;;24.40;95.80;;;22.73;88.53;99753.50;5031257;28;20132;-90
2022/06/19 00:11:59;;;;;;;12.82;5.68;;;24.40;95.90;;;22.68;89.31;99752.69;5031575;28;20119;-91
2022/06/19 00:14:28;;;;;;;10.43;5.28;;;24.30;96.20;;;22.62;89.78;99755.47;5031412;28;20045;-91
2022/06/19 00:16:55;;;;;;;12.13;5.35;;;24.30;96.30;;;22.57;89.76;99751.91;5025626;28;20503;-90
2022/06/19 00:19:22;;;;;;;11.48;5.65;;;24.30;96.40;;;22.51;90.54;99748.31;5031006;28;20514;-90
2022/06/19 00:21:51;;;;;;;9.15;5.20;;;24.30;96.60;;;22.45;90.79;99744.72;5029984;28;20136;-90
2022/06/19 00:24:18;;;;;;;13.95;5.40;;;24.20;96.60;;;22.37;91.34;99750.00;5030010;28;20614;-90
2022/06/19 00:26:45;;;;;;;11.15;5.00;;;24.20;96.80;;;22.35;91.58;99749.47;5029579;28;20187;-90
2022/06/19 00:29:12;;;;;;;9.85;5.07;;;24.20;96.80;;;22.33;91.67;99730.38;5046392;28;20583;-91
2022/06/19 00:31:40;;;;;;;10.98;5.47;;;24.10;97.20;;;22.30;91.87;99730.09;5030912;28;20072;-90
2022/06/19 00:34:07;;;;;;;13.25;5.30;;;24.10;97.10;;;22.24;92.45;99723.69;5030837;28;20048;-90
2022/06/19 00:36:35;;;;;;;13.63;5.47;;;24.10;97.30;;;22.22;91.81;99718.44;5030898;28;20080;-90
2022/06/19 00:39:04;;;;;;;14.20;5.13;;;24.10;97.10;;;22.20;91.93;99709.56;5029754;28;20116;-90
2022/06/19 00:41:35;;;;;;;10.02;4.65;;;24.10;97.10;;;22.16;92.32;99708.47;5030012;28;20048;-90
2022/06/19 00:44:06;;;;;;;11.02;4.88;;;24.10;97.10;;;22.11;92.35;99711.25;5028722;28;20049;-90
2022/06/19 00:46:53;;;;;;;10.10;4.63;;;24.00;97.10;;;22.05;92.75;99701.31;5029591;28;20471;-90
2022/06/19 00:49:28;;;;;;;10.90;4.43;;;24.00;97.20;;;22.02;92.58;99699.09;5030562;28;20638;-90
2022/06/19 00:52:05;;;;;;;9.90;4.95;;;23.90;97.20;;;21.97;92.50;99693.53;5030821;28;20124;-91
2022/06/19 00:54:43;;;;;;;10.20;4.70;;;23.90;97.10;;;21.98;92.52;99689.69;5030630;28;20057;-89
2022/06/19 00:57:12;;;;;;;12.05;4.78;;;23.90;97.10;;;21.96;92.45;99670.56;5030795;28;20051;-89
2022/06/19 00:59:43;;;;;;;8.15;4.13;;;23.80;97.10;;;21.92;92.90;99674.19;5028904;28;20048;-89
2022/06/19 01:02:12;;;;;;;10.43;4.63;;;23.80;97.20;;;21.92;92.39;99668.66;5030396;28;20033;-89
2022/06/19 01:04:45;;;;;;;8.70;4.35;;;23.80;97.30;;;21.92;92.34;99663.94;5030558;28;20041;-89
2022/06/19 01:07:13;;;;;;;10.30;4.53;;;23.80;97.20;;;21.93;92.54;99657.25;5028124;28;20739;-92
2022/06/19 01:09:42;;;;;;;10.57;5.10;;;23.80;97.20;;;21.89;92.43;99653.41;5030138;28;20116;-91
2022/06/19 01:12:10;;;;;;;10.52;4.32;;;23.70;97.20;;;21.79;92.65;99651.47;5030022;28;20120;-89
2022/06/19 01:14:42;;;;;;;8.95;4.50;;;23.70;97.20;;;21.80;92.99;99644.84;5028935;28;20613;-89
2022/06/19 01:17:11;;;;;;;6.70;4.05;;;23.70;97.40;;;21.71;93.38;99634.63;5030230;28;20122;-90
2022/06/19 01:19:41;;;;;;;7.65;4.35;;;23.70;97.60;;;21.66;93.98;99633.50;5029927;28;20052;-89
2022/06/19 01:22:33;;;;;;;8.10;4.50;;;23.70;97.80;;;21.61;94.37;99640.97;5028839;28;20076;-90
2022/06/19 01:25:07;;;;;;;11.90;4.70;;;23.60;97.90;;;21.63;93.98;99638.78;5028288;28;20121;-89
2022/06/19 01:30:26;;;;;;;10.20;4.88;;;23.60;97.80;;;21.60;93.93;99628.25;5029007;28;20477;-89
2022/06/19 01:32:56;;;;;;;7.43;4.50;;;23.60;97.90;;;21.52;94.39;99620.53;5031326;28;20124;-89
2022/06/19 01:35:26;;;;;;;12.43;4.90;;;23.60;98.10;;;21.52;94.96;99620.53;5022280;28;20463;-89
2022/06/19 01:37:56;;;;;;;8.23;4.85;;;23.50;98.20;;;21.45;95.36;99615.28;5022518;28;20491;-89
2022/06/19 01:40:30;;;;;;;9.73;4.95;;;23.50;98.30;;;21.37;95.41;99619.41;5042382;28;20076;-89
2022/06/19 01:42:57;;;;;;;10.95;5.10;;;23.50;98.50;;;21.37;95.83;99619.41;5056007;28;20060;-89
2022/06/19 01:45:25;;;;;;;13.10;5.32;;;23.50;98.70;;;21.37;96.16;99613.88;5055481;28;20042;-90
2022/06/19 01:47:52;;;;;;;8.85;5.03;;;23.40;98.70;;;21.37;95.81;99613.03;5055470;28;20061;-90
2022/06/19 01:50:25;;;;;;;10.10;5.53;;;23.40;98.60;;;21.35;95.79;99598.66;5053194;28;20026;-89
2022/06/19 01:53:01;;;;;;;12.25;5.10;;;23.40;98.80;;;21.28;96.18;99604.47;5034902;28;20049;-90
2022/06/19 01:55:30;;;;;;;10.38;4.55;;;23.40;98.90;;;21.22;97.11;99602.81;5034856;28;20109;-90
2022/06/19 01:58:00;;;;;;;11.35;5.20;;;23.40;99.00;;;21.18;97.86;99599.75;5034702;28;20034;-89
2022/06/19 02:00:31;;;;;;;13.30;5.70;;;23.30;99.40;;;21.16;97.14;99593.69;5034072;28;20041;-90
2022/06/19 02:03:06;;;;;;;12.68;5.05;;;23.30;99.30;;;21.19;97.03;99598.66;5032827;28;20045;-90
2022/06/19 02:05:35;;;;;;;8.55;5.40;;;23.30;99.20;;;21.15;96.96;99603.09;5031675;28;20120;-89
2022/06/19 02:08:02;;;;;;;7.30;5.05;;;23.30;99.10;;;21.07;97.87;99604.47;5031113;28;20120;-90
2022/06/19 02:10:32;;;;;;;10.23;5.20;;;23.30;99.30;;;21.01;97.23;99605.56;5030411;28;20046;-88
2022/06/19 02:13:01;;;;;;;11.55;5.10;;;23.20;99.00;;;20.96;97.93;99604.75;5030606;28;20136;-90
2022/06/19 02:15:31;;;;;;;9.52;4.63;;;23.20;99.10;;;21.01;96.90;99605.56;5029965;28;20136;-89
2022/06/19 02:18:01;;;;;;;9.98;4.95;;;23.20;99.00;;;21.04;95.93;99605.03;5029714;28;20454;-89
2022/06/19 02:20:29;;;;;;;9.45;4.18;;;23.10;98.80;;;20.99;96.19;99596.72;5028086;28;20133;-90
2022/06/19 02:22:57;;;;;;;8.07;4.18;;;23.10;98.70;;;20.97;95.48;99603.66;5029897;28;20055;-90
2022/06/19 02:25:24;;;;;;;8.00;3.63;;;23.10;98.60;;;20.95;94.85;99606.69;5028598;28;20054;-90
2022/06/19 02:27:53;;;;;;;7.03;3.72;;;23.10;98.20;;;20.93;94.38;99608.91;5023159;28;20543;-90
2022/06/19 02:30:21;;;;;;;7.50;3.75;;;23.10;97.90;;;20.91;94.01;99611.09;5008687;28;20463;-89
2022/06/19 02:32:52;;;;;;;8.63;3.40;;;23.00;97.70;;;20.87;94.80;99616.34;5009987;28;20124;-89
2022/06/19 02:35:21;;;;;;;;;;;23.00;97.90;;;20.78;94.21;99606.13;5029155;28;20120;-90
2022/06/19 02:37:51;;;;;;;7.20;3.47;;;23.00;97.70;;;20.76;93.47;99592.56;5028388;28;19979;-88
2022/06/19 02:40:33;;;;;;;6.72;2.95;;;22.90;97.30;;;20.78;93.27;99600.59;5029363;28;20045;-90
2022/06/19 02:43:01;;;;;;;8.32;3.42;;;22.90;97.30;;;20.70;92.04;99604.72;5028335;28;20148;-89
2022/06/19 02:45:33;;;;;;;5.82;3.05;;;22.90;96.50;;;20.60;92.38;99619.38;5029395;28;20049;-90
2022/06/19 02:48:02;;;;;;;8.90;3.40;;;22.90;96.60;;;20.55;92.23;99618.50;5028363;28;20096;-90
2022/06/19 02:50:33;;;;;;;7.47;3.60;;;22.80;96.30;;;20.58;91.81;99621.53;5028402;28;20603;-90
2022/06/19 02:53:01;;;;;;;6.40;3.13;;;22.80;96.40;;;20.54;91.93;99628.69;5029123;28;20474;-90
2022/06/19 02:55:29;;;;;;;6.72;2.97;;;22.70;96.40;;;20.43;92.71;99632.56;5029379;28;20128;-90
2022/06/19 02:57:56;;;;;;;9.05;2.97;;;22.70;96.50;;;20.29;93.53;99644.09;5029530;28;20049;-89
2022/06/19 03:00:28;;;;;;;9.98;3.30;;;22.70;96.40;;;20.25;93.68;99637.44;5031902;28;20517;-90
2022/06/19 03:03:01;;;;;;;8.70;2.70;;;22.60;96.40;;;20.23;93.47;99622.25;5032978;28;20067;-90
2022/06/19 03:05:30;;;;;;;7.15;3.15;;;22.60;96.50;;;20.29;92.93;99613.69;5031685;28;20598;-90
2022/06/19 03:07:58;;;;;;;7.65;2.80;;;22.60;96.40;;;20.30;92.77;99604.31;5033022;28;20125;-91
2022/06/19 03:10:25;;;;;;;7.07;3.40;;;22.60;96.30;;;20.27;92.23;99623.38;5032324;28;20060;-90
2022/06/19 03:12:52;;;;;;;4.68;2.58;;;22.60;96.10;;;20.15;93.16;99654.00;5031804;28;20045;-90
2022/06/19 03:15:20;;;;;;;7.18;2.90;;;22.50;96.30;;;20.09;94.39;99664.19;5032272;28;20068;-90
2022/06/19 03:17:48;;;;;;;8.68;3.47;;;22.50;96.70;;;20.04;93.34;99636.53;5031863;28;20038;-89
2022/06/19 03:20:19;;;;;;;7.88;3.30;;;22.50;96.50;;;20.02;92.08;99613.88;5028465;28;20041;-90
2022/06/19 03:22:47;;;;;;;;;;;22.40;95.90;;;20.00;92.24;99640.09;5032797;28;20104;-90
2022/06/19 03:25:15;;;;;;;6.43;2.80;;;22.40;95.80;;;19.90;93.38;99661.03;5031517;28;19931;-89
2022/06/19 03:27:42;;;;;;;9.18;3.22;;;22.40;95.80;;;19.81;91.70;99653.53;5032102;28;20059;-90
2022/06/19 03:30:12;;;;;;;10.02;3.00;;;22.40;95.30;;;19.77;91.41;99680.84;5031430;28;20076;-90
2022/06/19 03:32:40;;;;;;;6.80;2.80;;;22.30;94.90;;;19.83;91.15;99685.28;5032036;28;20042;-89
2022/06/19 03:35:10;;;;;;;8.38;2.60;;;22.30;94.90;;;19.75;91.30;99694.09;5019679;28;20121;-90
2022/06/19 03:37:37;;;;;;;12.30;2.83;;;22.30;95.10;;;19.70;90.89;99718.84;5029118;28;20069;-90
2022/06/19 03:40:06;;;;;;;5.90;2.47;;;22.30;94.70;;;19.68;90.79;99715.53;5010893;28;20415;-90
2022/06/19 03:42:34;;;;;;;8.68;3.28;;;22.20;94.30;;;19.70;90.24;99724.38;5012817;28;20037;-90
2022/06/19 03:45:01;;;;;;;5.38;2.65;;;22.20;94.20;;;19.72;89.57;99722.22;5029134;28;20040;-89
2022/06/19 03:47:30;;;;;;;8.85;2.58;;;22.20;94.20;;;19.74;89.27;99720.03;5029865;28;20072;-90
2022/06/19 03:49:57;;;;;;;7.07;2.38;;;22.10;93.80;;;19.69;88.30;99725.50;5031317;28;20041;-90
2022/06/19 03:52:26;;;;;;;6.72;2.75;;;22.10;93.50;;;19.62;87.85;99733.16;5030342;28;20045;-89
2022/06/19 03:54:53;;;;;;;8.10;2.72;;;22.10;93.10;;;19.56;86.06;99739.75;5031443;28;20132;-90
2022/06/19 03:57:21;;;;;;;9.57;2.53;;;22.00;92.40;;;19.54;84.48;99738.06;5031644;28;20563;-90
2022/06/19 03:59:48;;;;;;;9.23;2.60;;;22.00;91.20;;;19.55;83.81;99730.59;5031031;28;20044;-89
2022/06/19 04:02:15;;;;;;;10.25;2.40;;;22.00;90.70;;;19.54;81.88;99735.31;5030172;28;20080;-90
2022/06/19 04:04:43;;;;;;;9.50;2.53;;;21.90;90.00;;;19.48;81.03;99760.38;5031536;28;20068;-90
2022/06/19 04:07:13;;;;;;;10.65;2.47;;;21.90;89.40;;;19.53;81.73;99768.69;5031489;28;20071;-90
2022/06/19 04:09:42;;;;;;;10.80;2.75;;;21.90;89.50;;;19.47;80.01;99787.13;5029871;28;20155;-90
2022/06/19 04:12:12;;;;;;;10.30;2.15;;;21.90;88.60;;;19.43;78.88;99791.50;5031417;28;20125;-89
2022/06/19 04:14:40;;;;;;;10.20;2.80;;;21.80;87.80;;;19.30;79.50;99802.94;5028450;28;20498;-90
2022/06/19 04:17:08;;;;;;;11.65;2.88;;;21.80;87.90;;;19.22;78.29;99804.25;5011619;28;20069;-89
2022/06/19 04:19:35;;;;;;;10.77;2.60;;;21.70;87.40;;;19.17;77.36;99795.91;5012649;28;20045;-91
2022/06/19 04:22:05;;;;;;;16.38;2.88;;;21.70;86.60;;;19.14;76.92;99811.06;5031363;28;20052;-90
2022/06/19 04:24:32;;;;;;;13.70;2.95;;;21.70;86.30;;;19.16;75.65;99805.28;5029077;28;20041;-89
2022/06/19 04:27:05;;;;;;;9.85;2.63;;;21.60;85.20;;;19.09;76.56;99841.34;5030982;28;20566;-89
2022/06/19 04:29:32;;;;;;;14.32;3.13;;;21.60;85.60;;;19.14;75.97;99871.75;5030896;28;20038;-89
2022/06/19 04:32:00;;;;;;;11.13;2.92;;;21.60;85.50;;;19.09;75.52;99835.81;5028435;28;20095;-89
2022/06/19 04:34:27;;;;;;;11.57;3.15;;;21.60;84.70;;;19.16;73.82;99823.78;5029975;28;20091;-89
2022/06/19 04:36:54;;;;;;;15.90;2.85;;;21.60;84.50;;;19.26;73.43;99823.88;5030655;28;20042;-89
2022/06/19 04:39:22;;;;;;;15.27;3.08;;;21.60;84.30;;;19.27;71.82;99833.84;5030172;28;20041;-89
2022/06/19 04:41:49;;;;;;;16.92;3.05;;;21.60;83.30;;;19.23;72.68;99840.94;5033767;28;20092;-90
2022/06/19 04:44:19;;;;;;;16.83;3.20;;;21.60;83.30;;;19.33;72.07;99838.31;5030522;28;20041;-89
2022/06/19 04:46:46;;;;;;;10.68;3.10;;;21.60;83.40;;;19.31;71.98;99832.22;5031597;28;20136;-89
2022/06/19 04:49:17;;;;;;;18.20;3.60;;;21.60;83.50;;;19.30;70.56;99808.47;5030401;28;20501;-85
2022/06/19 04:51:45;;;;;;;13.75;3.15;;;21.60;82.50;;;19.31;69.22;99799.13;5029820;28;20132;-83
2022/06/19 04:54:12;;;;;;;16.13;3.63;;;21.60;81.50;;;19.25;69.67;99800.16;5030546;28;20041;-85
2022/06/19 04:56:40;;;;;;;16.60;3.05;;;21.60;81.30;;;19.57;67.61;99818.66;5030422;28;20640;-85
2022/06/19 04:59:09;;;;;;;19.10;3.53;;;21.60;80.90;;;19.49;68.42;99817.22;5030539;28;20868;-86
2022/06/19 05:01:40;;;;;;;14.10;3.22;;;21.60;81.20;;;19.46;68.08;99809.47;5029535;28;20108;-86
2022/06/19 05:04:11;;;;;;;14.80;2.70;;;21.60;80.50;;;19.29;67.81;99801.31;5030874;28;20124;-86
2022/06/19 05:06:39;;;;;;;19.77;3.40;;;21.50;80.10;;;19.44;66.69;99820.78;5030173;28;20048;-85
2022/06/19 05:09:06;;;;;;;12.45;2.95;;;21.60;79.70;;;19.42;66.97;99819.34;5029958;28;20080;-85
2022/06/19 05:11:34;;;;;;;18.50;3.42;;;21.60;79.40;;;19.43;65.95;99802.53;5030304;28;20037;-85
2022/06/19 05:14:03;;;;;;;13.02;3.10;;;21.60;78.60;;;19.52;67.04;99795.44;5030642;28;20132;-84
2022/06/19 05:16:30;;;;;;;15.52;3.63;;;21.70;79.70;;;19.58;65.31;99792.75;5030131;28;20069;-85
2022/06/19 05:19:00;;;;;;;15.75;2.88;;;21.70;78.70;;;19.66;65.72;99822.63;5028808;28;20136;-86
2022/06/19 05:21:27;;;;;;;14.55;3.33;;;21.70;78.60;;;19.70;63.05;99867.94;5029477;28;20439;-85
2022/06/19 05:23:56;;;;;;;14.60;3.20;;;21.70;77.10;;;19.70;65.16;99870.69;5029734;28;20042;-84
2022/06/19 05:26:26;;;;;;;16.73;3.15;;;21.70;78.70;;;19.69;63.72;99841.44;5029958;28;20041;-84
2022/06/19 05:28:56;;;;;;;14.00;2.83;;;21.70;77.80;;;19.49;62.98;99831.84;5029935;28;20081;-84
2022/06/19 05:31:23;;;;;;;14.50;3.22;;;21.70;76.10;;;19.32;62.77;99850.44;5029770;28;20043;-84
2022/06/19 05:33:51;;;;;;;11.98;2.75;;;21.70;75.60;;;19.41;64.55;99868.19;5030158;28;20055;-84
2022/06/19 05:36:20;;;;;;;12.30;3.17;;;21.60;77.10;;;19.50;62.00;99847.31;5026640;28;20575;-84
2022/06/19 05:38:48;;;;;;;13.60;2.58;;;21.60;76.30;;;19.69;61.34;99866.28;5029860;28;20128;-85
2022/06/19 05:41:15;;;;;;;17.35;3.00;;;21.60;76.00;;;19.68;63.17;99870.13;5015714;28;20575;-87
2022/06/19 05:43:43;;;;;;;17.45;2.88;;;21.70;76.90;;;19.78;62.04;99870.28;5010242;28;20108;-86
2022/06/19 05:46:16;;;;;;;13.48;3.33;;;21.60;76.70;;;19.75;61.15;99873.56;5022496;28;20069;-86
2022/06/19 05:48:43;;;;;;;15.40;2.90;;;21.70;75.70;;;19.70;61.57;99821.00;5027929;28;20049;-85
2022/06/19 05:51:14;;;;;;;12.10;2.95;;;21.70;76.00;;;19.75;60.59;99749.31;5028061;28;20153;-84
2022/06/19 05:53:47;;;;;;;10.52;3.10;;;21.70;75.50;;;19.98;60.34;99785.94;5029187;28;20045;-85
2022/06/19 05:56:15;;;;;;;14.93;3.22;;;21.70;75.50;;;19.97;60.39;99795.31;5174240;23;20083;-88
2022/06/19 05:58:43;;;;;;;11.35;3.08;;;21.70;75.10;;;21.62;57.21;99764.50;5048308;28;20041;-88
2022/06/19 06:01:12;;;;;;;15.00;3.13;;;21.90;75.90;;;23.81;50.61;99752.84;5049623;28;20115;-92
2022/06/19 06:03:41;;;;;;;12.27;2.33;;;22.20;74.70;;;25.24;45.71;99739.22;5050940;28;20044;-92
2022/06/19 06:06:15;;;;;;;12.90;2.85;;;22.40;72.50;;;26.61;42.63;99719.56;5049751;28;20053;-95
2022/06/19 06:08:43;;;;;;;13.05;2.67;;;22.70;72.40;;;27.38;40.61;99720.63;5050583;28;20055;-91
2022/06/19 06:11:11;;;;;;;12.65;3.13;;;23.00;71.70;;;27.68;39.07;99699.47;5050139;28;20045;-89
2022/06/19 06:13:39;;;;;;;12.70;2.70;;;23.20;70.30;;;27.97;38.82;99703.78;5049542;28;20041;-81
2022/06/19 06:16:07;;;;;;;13.43;3.47;;;23.40;70.30;;;28.12;37.95;99697.78;5048985;28;20077;-81
2022/06/19 06:18:35;;;;;;;14.52;2.92;;;23.60;69.70;;;27.60;38.61;99700.25;5037408;28;20300;-81
2022/06/19 06:21:05;;;;;;;13.82;3.00;;;23.80;69.10;;;26.74;41.08;99696.38;5049690;28;20045;-81
2022/06/19 06:23:33;;;;;;;11.65;3.13;;;23.90;69.50;;;26.65;41.31;99704.66;5047374;28;20052;-82
2022/06/19 06:26:05;;;;;;;10.82;2.75;;;23.90;69.20;;;26.57;41.37;99701.75;5045281;28;20049;-82
2022/06/19 06:28:34;;;;;;;15.38;3.35;;;24.00;69.30;;;26.78;40.50;99713.34;5036590;28;20080;-82
2022/06/19 06:31:01;;;;;;;13.13;2.85;;;24.00;68.80;;;27.08;40.09;99700.66;5048606;28;20073;-83
2022/06/19 06:33:29;;;;;;;14.90;3.00;;;24.10;68.60;;;27.32;39.78;99693.97;5052634;28;20033;-85
2022/06/19 06:35:57;;;;;;;13.55;3.00;;;24.10;69.30;;;26.30;41.41;99709.00;5048876;28;20077;-84
2022/06/19 06:38:25;;;;;;;15.05;2.88;;;24.00;68.80;;;24.80;45.39;99706.97;5049351;28;20045;-84
2022/06/19 06:40:53;;;;;;;14.50;3.03;;;24.00;69.90;;;23.67;48.64;99702.66;5052550;28;20041;-79
2022/06/19 06:43:22;;;;;;;11.07;3.00;;;23.90;70.00;;;23.31;49.56;99688.25;5048969;28;20029;-79
2022/06/19 06:45:50;;;;;;;11.75;2.88;;;23.90;70.20;;;23.14;50.51;99677.53;5048851;28;20060;-79
2022/06/19 06:48:19;;;;;;;14.27;3.05;;;23.80;70.70;;;23.05;51.64;99696.75;5046093;28;20128;-79
2022/06/19 06:50:47;;;;;;;12.40;2.90;;;23.80;71.30;;;22.86;51.23;99724.28;5052425;28;20128;-79
2022/06/19 06:53:17;;;;;;;10.82;2.95;;;23.80;70.70;;;22.68;51.80;99736.06;5050427;28;20045;-79
2022/06/19 06:55:45;;;;;;;12.38;2.90;;;23.80;70.20;;;22.51;52.94;99751.09;5049822;28;20505;-79
2022/06/19 06:58:21;;;;;;;13.07;3.10;;;23.70;70.90;;;22.53;52.40;99767.44;5050254;28;20072;-79
2022/06/19 07:01:13;;;;;;;16.90;3.20;;;23.70;70.60;;;22.36;52.50;99773.31;5050843;28;20535;-80
2022/06/19 07:03:41;;;;;;;13.15;2.92;;;23.60;70.30;;;22.16;54.43;99790.78;5049544;28;20152;-78
2022/06/19 07:06:08;;;;;;;12.93;3.30;;;23.60;71.30;;;22.01;53.06;99789.69;5051691;28;20072;-79
2022/06/19 07:08:36;;;;;;;13.25;3.30;;;23.50;70.30;;;21.88;54.66;99789.44;5049456;28;20045;-79
2022/06/19 07:11:03;;;;;;;12.85;3.40;;;23.50;71.40;;;21.85;54.34;99807.44;5052391;28;20553;-78
2022/06/19 07:13:30;;;;;;;17.17;3.85;;;23.40;71.40;;;21.80;57.11;99811.03;5050728;28;20032;-78
2022/06/19 07:15:57;;;;;;;14.13;3.53;;;23.40;72.80;;;22.01;56.97;99847.06;5051744;28;20053;-78
2022/06/19 07:18:26;;;;;;;15.55;3.33;;;23.20;73.20;;;21.95;59.02;99867.53;5049804;28;20075;-79
2022/06/19 07:20:53;;;;;;;13.43;3.28;;;23.40;75.00;;;21.82;55.85;99863.41;5051607;28;20419;-79
2022/06/19 07:23:20;;;;;;;11.45;3.03;;;23.30;72.80;;;21.86;58.62;99886.66;5052063;28;20402;-78
2022/06/19 07:25:48;;;;;;;11.68;2.83;;;23.30;75.00;;;22.06;58.68;99938.50;5051919;28;20091;-78
2022/06/19 07:28:17;;;;;;;15.90;3.50;;;23.20;75.00;;;22.13;58.13;99964.00;5050823;28;20205;-79
2022/06/19 07:30:45;;;;;;;15.18;3.00;;;23.30;75.40;;;22.15;57.77;99972.88;5052382;28;20096;-79
2022/06/19 07:33:13;;;;;;;14.77;3.38;;;23.30;75.00;;;22.35;59.07;100013.69;5050682;28;20044;-78
2022/06/19 07:35:42;;;;;;;17.45;3.55;;;23.30;76.00;;;22.39;57.53;100038.91;5046519;28;20037;-79
2022/06/19 07:38:20;;;;;;;11.88;3.17;;;23.30;76.30;;;22.43;59.01;100065.00;5047795;28;20053;-79
2022/06/19 07:40:47;;;;;;;14.05;3.13;;;23.40;76.40;;;22.39;58.51;100077.72;5048735;28;20052;-79
2022/06/19 07:43:14;;;;;;;14.38;3.00;;;23.40;76.30;;;22.43;58.44;100067.78;5048658;28;20037;-79
2022/06/19 07:45:41;;;;;;;15.95;3.20;;;23.40;76.00;;;22.50;59.25;100071.09;5049072;28;20047;-79
2022/06/19 07:50:56;;;;;;;15.68;3.65;;;23.40;76.80;;;22.59;55.12;100061.13;5067456;28;20045;-78
2022/06/19 07:53:23;;;;;;;12.60;2.55;;;23.50;74.70;;;22.72;58.09;100056.16;5052070;28;20052;-78
2022/06/19 07:55:51;;;;;;;16.08;3.67;;;23.50;75.60;;;22.72;58.51;100059.75;5049453;28;20046;-78
2022/06/19 07:58:18;;;;;;;11.45;3.30;;;23.50;76.30;;;22.76;58.14;100060.88;5047505;28;20395;-78
2022/06/19 08:00:45;;;;;;;14.52;3.35;;;23.60;76.70;;;22.58;57.42;100037.28;5051625;28;20044;-78
2022/06/19 08:03:12;;;;;;;17.77;3.40;;;23.50;75.20;;;22.55;58.18;100032.28;5051576;28;20045;-78
2022/06/19 08:05:41;;;;;;;12.88;3.63;;;23.50;75.50;;;22.54;57.03;100046.41;5051521;28;20041;-79
2022/06/19 08:08:18;;;;;;;15.55;3.22;;;23.50;74.60;;;22.53;55.47;100058.63;5048619;28;20120;-80
2022/06/19 08:10:50;;;;;;;13.55;3.88;;;23.50;73.80;;;22.48;55.83;100045.59;5031417;28;20041;-82
2022/06/19 08:13:19;;;;;;;14.82;3.88;;;23.50;73.70;;;22.40;54.79;100051.69;5031710;28;20045;-82
2022/06/19 08:15:47;;;;;;;17.50;4.63;;;23.50;73.20;;;22.39;56.51;100039.75;5047789;28;20037;-84
2022/06/19 08:18:15;;;;;;;14.88;4.65;;;23.40;74.00;;;22.31;56.38;100043.06;5050456;28;20037;-84
2022/06/19 08:20:42;;;;;;;20.17;5.05;;;23.40;74.10;;;22.23;56.20;100033.31;5051949;28;20506;-82
2022/06/19 08:23:11;;;;;;;14.05;4.00;;;23.40;74.00;;;22.05;57.70;100022.75;5048706;28;20048;-82
2022/06/19 08:25:39;;;;;;;16.20;4.25;;;23.40;74.30;;;22.21;57.68;100037.47;5051241;28;20439;-82
2022/06/19 08:28:07;;;;;;;15.43;4.55;;;23.40;74.90;;;22.23;56.82;100030.53;5038087;28;20041;-82
2022/06/19 08:30:37;;;;;;;18.92;4.53;;;23.40;74.20;;;22.27;55.94;100035.56;5031118;28;20514;-82
2022/06/19 08:33:05;;;;;;;15.73;4.23;;;23.40;73.40;;;22.29;57.30;100027.81;5032470;28;20041;-79
2022/06/19 08:35:37;;;;;;;19.60;4.13;;;23.40;74.50;;;22.40;57.34;100046.13;5047820;28;20056;-83
2022/06/19 08:38:09;;;;;;;18.60;4.18;;;23.40;75.00;;;22.22;58.40;100062.16;5048002;28;20137;-82
2022/06/19 08:40:56;;;;;;;19.30;4.30;;;23.40;75.40;;;22.35;57.95;100059.97;5050873;28;20499;-83
2022/06/19 08:43:43;;;;;;;11.68;3.60;;;23.40;75.10;;;22.54;56.34;100069.47;5050857;28;20124;-82
2022/06/19 08:46:24;;;;;;;14.68;3.60;;;23.50;75.00;;;22.75;57.51;100072.22;5051043;28;20443;-81
2022/06/19 08:49:02;;;;;;;;;;;23.50;76.20;;;22.74;58.69;100068.63;5045152;28;20065;-81
2022/06/19 08:51:40;;;;;;;17.27;3.55;;;23.50;76.60;;;22.93;59.83;100070.88;5045093;28;19928;-81
2022/06/19 08:54:27;;;;;;;13.73;3.55;;;23.60;77.50;;;23.09;58.55;100068.94;5055068;28;20051;-80
2022/06/19 08:57:08;;;;;;;17.10;3.88;;;23.60;78.30;;;23.15;58.24;100078.91;5046536;28;20041;-81
2022/06/19 08:59:49;;;;;;;15.32;3.67;;;23.60;76.40;;;23.04;55.22;100089.22;5044526;28;20546;-82
2022/06/19 09:02:38;;;;;;;12.38;3.45;;;23.70;74.50;;;22.92;54.10;100083.88;5042864;28;20040;-82
2022/06/19 09:08:46;;;;;;;16.02;3.53;;;23.60;73.30;;;22.87;57.05;100011.75;5049987;28;20044;-82
2022/06/19 09:11:45;;;;;;;12.98;3.10;;;23.60;74.00;;;22.85;55.09;100011.22;5045890;28;20111;-80
2022/06/19 09:14:37;;;;;;;16.80;3.42;;;23.70;74.00;;;22.75;54.53;100017.59;5041775;28;20029;-79
2022/06/19 09:17:11;;;;;;;12.95;2.75;;;23.70;72.70;;;22.77;57.56;100007.06;5043708;28;20053;-81
2022/06/19 09:19:52;;;;;;;12.88;3.05;;;23.70;74.70;;;22.53;55.13;99989.31;5028385;28;20585;-80
2022/06/19 09:22:55;;;;;;;12.55;3.08;;;23.70;72.80;;;22.48;55.72;99981.81;5035551;28;20072;-80
2022/06/19 09:25:44;;;;;;;15.43;3.00;;;23.60;72.60;;;22.40;55.89;99990.69;5035982;28;20431;-81
2022/06/19 09:28:21;;;;;;;14.15;3.72;;;23.60;73.50;;;22.11;53.63;99987.56;5048518;28;20045;-80
2022/06/19 09:31:02;;;;;;;13.95;3.17;;;23.60;70.80;;;22.00;56.43;99992.25;5047148;28;20580;-80
2022/06/19 09:33:39;;;;;;;12.70;3.03;;;23.50;71.80;;;22.03;58.11;99991.72;5043504;28;20041;-79
2022/06/19 09:36:21;;;;;;;16.73;3.78;;;23.50;75.00;;;21.91;56.56;99989.16;5059977;28;20045;-79
2022/06/19 09:38:56;;;;;;;16.02;3.40;;;23.40;72.40;;;21.88;55.47;99986.97;5045938;28;20120;-79
2022/06/19 09:41:34;;;;;;;14.10;3.47;;;23.40;72.10;;;21.98;55.82;99991.69;5039499;28;20467;-79
2022/06/19 09:44:09;;;;;;;11.13;3.17;;;23.40;72.00;;;22.11;57.65;99996.72;5043028;28;20072;-80
2022/06/19 09:46:44;;;;;;;17.15;3.53;;;23.30;74.40;;;22.02;55.81;99988.09;5044532;28;20048;-82
2022/06/19 09:49:20;;;;;;;15.52;4.22;;;23.30;72.40;;;21.85;57.18;99960.63;5040043;28;20040;-82
2022/06/19 09:51:57;;;;;;;15.77;3.80;;;23.30;73.70;;;21.64;56.92;99956.13;5049454;28;20272;-82
2022/06/19 09:54:31;;;;;;;24.40;4.18;;;23.30;73.20;;;21.39;57.62;99943.81;5042756;28;20453;-83
2022/06/19 09:57:09;;;;;;;16.52;3.40;;;23.20;72.80;;;21.27;60.74;99912.78;5046929;28;20468;-83
2022/06/19 09:59:45;;;;;;;16.20;4.38;;;23.10;75.10;;;21.26;60.58;99902.81;5048928;28;20053;-84
2022/06/19 10:02:22;;;;;;;17.55;4.80;;;23.10;75.60;;;21.25;60.14;99910.28;5049585;28;20037;-83
2022/06/19 10:04:58;;;;;;;15.73;4.82;;;23.00;75.40;;;21.15;59.71;99909.41;5049344;28;20128;-82
2022/06/19 10:07:36;;;;;;;20.80;4.32;;;23.00;74.70;;;21.15;60.55;99884.50;5047030;28;20055;-82
2022/06/19 10:10:17;;;;;;;15.32;4.28;;;23.00;75.70;;;21.19;62.00;99883.69;5033511;28;20475;-79
2022/06/19 10:12:50;;;;;;;20.70;4.30;;;23.00;76.40;;;21.25;63.36;99888.16;5050028;28;20048;-80
2022/06/19 10:15:23;;;;;;;14.68;3.95;;;23.00;77.60;;;21.31;61.31;99911.13;5053543;28;20287;-80
2022/06/19 10:17:58;;;;;;;15.05;4.45;;;23.00;76.70;;;21.35;61.22;99898.41;5059523;28;20054;-81
2022/06/19 10:20:37;;;;;;;14.25;4.93;;;22.90;77.10;;;21.47;60.69;99940.56;5033372;28;20111;-81
2022/06/19 10:23:20;;;;;;;15.60;3.95;;;22.90;77.10;;;21.50;60.40;99922.59;5051288;28;20045;-81
2022/06/19 10:26:20;;;;;;;16.17;4.18;;;22.90;76.90;;;21.43;61.27;99956.03;5053274;28;20449;-81
2022/06/19 10:29:24;;;;;;;14.50;3.92;;;22.90;76.30;;;21.14;59.57;99877.31;5060874;28;20045;-81
2022/06/19 10:32:06;;;;;;;17.23;4.53;;;22.90;75.50;;;21.09;63.41;99862.34;5043440;28;20463;-82
2022/06/19 10:34:53;;;;;;;18.33;4.78;;;22.80;77.30;;;21.17;65.01;99830.56;5043017;28;20055;-82
2022/06/19 10:37:33;;;;;;;15.98;4.35;;;22.90;79.70;;;21.25;63.09;99865.19;5034844;28;20053;-84
2022/06/19 10:40:18;;;;;;;16.55;4.00;;;22.90;78.90;;;21.23;67.56;99895.06;5050503;28;20136;-84